createdAt,value
2022-11-29T00:02:56.220Z,10.43
2022-11-29T00:08:00.345Z,9.68
2022-11-29T00:13:02.986Z,9.10
2022-11-29T00:18:06.509Z,9.48
2022-11-29T00:23:10.567Z,10.38
2022-11-29T00:28:13.210Z,9.70
2022-11-29T00:33:16.092Z,11.40
2022-11-29T00:38:20.159Z,9.55
2022-11-29T00:43:22.830Z,10.07
2022-11-29T00:48:25.665Z,9.40
2022-11-29T00:53:29.681Z,8.75
2022-11-29T00:58:32.739Z,8.73
2022-11-29T01:03:35.491Z,9.93
2022-11-29T01:08:39.612Z,8.68
2022-11-29T01:13:43.058Z,8.65
2022-11-29T01:18:45.738Z,9.02
2022-11-29T01:23:50.797Z,8.90
2022-11-29T01:28:55.550Z,9.13
2022-11-29T01:34:00.085Z,8.50
2022-11-29T01:39:05.739Z,7.93
2022-11-29T01:44:47.044Z,7.07
2022-11-29T01:49:51.216Z,10.02
2022-11-29T01:54:57.711Z,6.65
2022-11-29T02:00:07.390Z,8.43
2022-11-29T02:05:16.730Z,7.82
2022-11-29T02:10:22.073Z,7.93
2022-11-29T02:15:34.690Z,7.93
2022-11-29T02:20:55.234Z,8.50
2022-11-29T02:26:07.421Z,8.13
2022-11-29T02:31:54.484Z,7.43
2022-11-29T02:37:11.497Z,7.47
2022-11-29T02:42:55.776Z,7.18
2022-11-29T02:48:09.258Z,7.00
2022-11-29T02:53:16.894Z,7.43
2022-11-29T02:58:24.595Z,9.23
2022-11-29T03:03:32.392Z,8.55
2022-11-29T03:08:41.974Z,8.80
2022-11-29T03:13:52.768Z,8.38
2022-11-29T03:19:05.343Z,7.53
2022-11-29T03:24:12.779Z,8.27
2022-11-29T03:29:22.598Z,7.10
2022-11-29T03:34:36.974Z,8.02
2022-11-29T03:39:48.671Z,8.40
2022-11-29T03:44:57.411Z,6.10
2022-11-29T03:50:04.941Z,7.88
2022-11-29T03:55:24.204Z,7.63
2022-11-29T04:00:29.807Z,9.45
2022-11-29T04:05:56.898Z,7.68
2022-11-29T04:11:24.249Z,7.82
2022-11-29T04:16:58.573Z,7.68
2022-11-29T04:22:13.658Z,8.73
2022-11-29T04:27:37.877Z,7.57
2022-11-29T04:33:28.737Z,7.22
2022-11-29T04:38:59.859Z,7.40
2022-11-29T04:44:16.556Z,7.32
2022-11-29T04:49:30.035Z,6.35
2022-11-29T04:54:37.702Z,8.02
2022-11-29T04:59:45.078Z,7.47
2022-11-29T05:04:52.491Z,8.02
2022-11-29T05:09:59.889Z,7.18
2022-11-29T05:15:36.989Z,7.65
2022-11-29T05:20:44.306Z,6.97
2022-11-29T05:25:51.801Z,7.88
2022-11-29T05:31:17.435Z,6.03
2022-11-29T05:36:25.920Z,6.85
2022-11-29T05:41:41.045Z,7.78
2022-11-29T05:46:50.980Z,7.57
2022-11-29T05:51:59.136Z,6.63
2022-11-29T05:57:11.770Z,7.47
2022-11-29T06:02:29.058Z,6.60
2022-11-29T06:07:38.648Z,6.90
2022-11-29T06:12:43.690Z,7.45
2022-11-29T06:17:58.053Z,7.38
2022-11-29T06:23:18.482Z,7.90
2022-11-29T06:28:33.250Z,7.57
2022-11-29T06:33:44.418Z,11.00
2022-11-29T06:38:47.464Z,6.93
2022-11-29T06:43:51.041Z,7.45
2022-11-29T06:49:02.361Z,9.32
2022-11-29T06:54:15.671Z,11.43
2022-11-29T06:59:31.704Z,19.27
2022-11-29T07:04:57.532Z,20.63
2022-11-29T07:10:00.515Z,16.33
2022-11-29T07:15:03.810Z,19.00
2022-11-29T07:20:13.775Z,15.85
2022-11-29T07:25:26.347Z,15.73
2022-11-29T07:30:35.648Z,11.73
2022-11-29T07:35:46.105Z,16.00
2022-11-29T07:40:53.235Z,12.85
2022-11-29T07:45:56.974Z,12.50
2022-11-29T07:51:01.861Z,13.48
2022-11-29T07:56:04.616Z,11.13
2022-11-29T08:01:07.639Z,10.73
2022-11-29T08:06:11.773Z,14.05
2022-11-29T08:11:15.853Z,9.10
2022-11-29T08:16:18.943Z,12.82
2022-11-29T08:21:23.013Z,13.20
2022-11-29T08:26:31.264Z,10.75
2022-11-29T08:31:34.410Z,12.30
2022-11-29T08:36:38.861Z,14.85
2022-11-29T08:41:41.506Z,11.77
2022-11-29T08:47:01.906Z,13.57
2022-11-29T08:52:24.073Z,10.02
2022-11-29T08:57:42.068Z,9.75
2022-11-29T09:02:44.750Z,9.35
2022-11-29T09:07:48.887Z,16.98
2022-11-29T09:12:51.618Z,9.88
2022-11-29T09:17:54.271Z,10.77
2022-11-29T09:22:58.883Z,9.98
2022-11-29T09:28:02.976Z,9.55
2022-11-29T09:33:05.658Z,11.88
2022-11-29T09:38:11.822Z,8.52
2022-11-29T09:43:21.040Z,10.43
2022-11-29T09:48:42.689Z,11.07
2022-11-29T09:53:59.351Z,9.93
2022-11-29T09:59:04.743Z,9.95
2022-11-29T10:04:11.963Z,9.82
2022-11-29T10:09:18.475Z,8.50
2022-11-29T10:14:27.735Z,11.00
2022-11-29T10:19:33.605Z,8.45
2022-11-29T10:24:39.262Z,8.43
2022-11-29T10:29:41.950Z,10.90
2022-11-29T10:34:44.889Z,9.45
2022-11-29T10:39:51.296Z,12.52
2022-11-29T10:44:53.962Z,9.40
2022-11-29T10:49:56.803Z,9.25
2022-11-29T10:55:01.086Z,12.02
2022-11-29T11:00:07.782Z,11.85
2022-11-29T11:05:18.371Z,9.98
2022-11-29T11:10:26.362Z,9.02
2022-11-29T11:15:30.740Z,9.50
2022-11-29T11:20:34.677Z,9.52
2022-11-29T11:25:39.693Z,10.93
2022-11-29T11:30:50.774Z,10.30
2022-11-29T11:36:08.024Z,9.57
2022-11-29T11:41:21.861Z,9.57
2022-11-29T11:46:24.930Z,9.40
2022-11-29T11:51:28.873Z,11.15
2022-11-29T11:56:36.601Z,9.38
2022-11-29T12:01:40.097Z,9.45
2022-11-29T12:06:50.957Z,10.75
2022-11-29T12:12:01.419Z,12.27
2022-11-29T12:17:19.631Z,11.30
2022-11-29T12:22:25.747Z,8.77
2022-11-29T12:27:30.572Z,10.13
2022-11-29T12:32:46.786Z,10.35
2022-11-29T12:37:52.993Z,9.95
2022-11-29T12:43:02.240Z,13.15
2022-11-29T12:48:14.808Z,10.27
2022-11-29T12:53:27.802Z,9.25
2022-11-29T12:58:41.354Z,11.32
2022-11-29T13:03:53.706Z,9.45
2022-11-29T13:09:04.957Z,9.35
2022-11-29T13:14:41.472Z,10.25
2022-11-29T13:19:39.457Z,9.38
2022-11-29T13:24:45.461Z,9.95
2022-11-29T13:29:50.169Z,9.23
2022-11-29T13:34:53.423Z,10.57
2022-11-29T13:40:00.490Z,10.65
2022-11-29T13:45:10.987Z,9.93
2022-11-29T13:50:37.255Z,9.98
2022-11-29T13:55:45.369Z,11.88
2022-11-29T14:00:52.003Z,11.10
2022-11-29T14:05:55.794Z,10.30
2022-11-29T14:11:00.377Z,10.48
2022-11-29T14:16:05.615Z,10.25
2022-11-29T14:21:08.566Z,12.07
2022-11-29T14:26:29.756Z,10.95
2022-11-29T14:31:51.622Z,11.75
2022-11-29T14:36:57.807Z,13.60
2022-11-29T14:42:07.775Z,10.90
2022-11-29T14:47:21.359Z,13.18
2022-11-29T14:52:29.095Z,10.98
2022-11-29T14:57:52.676Z,10.27
2022-11-29T15:02:59.967Z,12.02
2022-11-29T15:08:09.260Z,9.77
2022-11-29T15:13:14.159Z,10.05
2022-11-29T15:18:27.858Z,12.68
2022-11-29T15:23:40.865Z,10.35
2022-11-29T15:28:43.541Z,12.27
2022-11-29T15:33:49.073Z,23.08
2022-11-29T15:38:53.887Z,51.75
2022-11-29T15:43:59.318Z,75.45
2022-11-29T15:49:18.942Z,88.72
2022-11-29T15:54:27.426Z,88.47
2022-11-29T15:59:34.238Z,99.38
2022-11-29T16:04:45.080Z,103.32
2022-11-29T16:09:52.619Z,91.10
2022-11-29T16:14:57.219Z,97.78
2022-11-29T16:20:23.416Z,92.00
2022-11-29T16:25:27.032Z,102.97
2022-11-29T16:30:31.250Z,100.10
2022-11-29T16:35:36.257Z,106.95
2022-11-29T16:40:38.932Z,104.28
2022-11-29T16:45:42.145Z,102.15
2022-11-29T16:50:46.375Z,95.88
2022-11-29T16:55:49.025Z,89.05
2022-11-29T17:00:51.678Z,91.72
2022-11-29T17:05:56.189Z,80.18
2022-11-29T17:10:58.828Z,88.50
2022-11-29T17:16:01.479Z,82.80
2022-11-29T17:21:05.757Z,81.75
2022-11-29T17:26:08.564Z,81.78
2022-11-29T17:31:11.927Z,86.32
2022-11-29T17:36:17.758Z,82.10
2022-11-29T17:41:22.600Z,80.78
2022-11-29T17:46:26.950Z,78.20
2022-11-29T17:56:53.716Z,85.80
2022-11-29T18:01:56.633Z,81.95
2022-11-29T18:07:01.464Z,78.97
2022-11-29T18:12:04.391Z,81.45
2022-11-29T18:17:07.035Z,79.90
2022-11-29T18:22:11.123Z,73.43
2022-11-29T18:27:13.765Z,63.25
2022-11-29T18:32:16.468Z,67.80
2022-11-29T18:37:38.967Z,83.78
2022-11-29T18:42:43.087Z,97.95
2022-11-29T18:47:46.017Z,108.05
2022-11-29T18:52:51.460Z,123.88
2022-11-29T18:57:54.192Z,143.57
2022-11-29T19:02:57.380Z,145.00
2022-11-29T19:08:01.541Z,165.90
2022-11-29T19:13:04.436Z,168.15
2022-11-29T19:18:07.138Z,175.65
2022-11-29T19:23:11.159Z,177.88
2022-11-29T19:28:14.346Z,188.80
2022-11-29T19:33:17.229Z,183.73
2022-11-29T19:38:21.280Z,175.95
2022-11-29T19:43:24.124Z,170.38
2022-11-29T19:48:26.718Z,179.52
2022-11-29T19:53:30.940Z,177.00
2022-11-29T19:58:33.632Z,170.65
2022-11-29T20:03:36.559Z,170.65
2022-11-29T20:08:41.608Z,161.30
2022-11-29T20:13:45.728Z,158.60
2022-11-29T20:18:51.077Z,163.98
2022-11-29T20:23:57.712Z,150.73
2022-11-29T20:29:01.727Z,153.18
2022-11-29T20:34:04.949Z,153.95
2022-11-29T20:39:17.878Z,150.57
2022-11-29T20:44:24.869Z,144.43
2022-11-29T20:49:28.011Z,137.93
2022-11-29T20:54:32.027Z,135.57
2022-11-29T20:59:34.757Z,131.15
2022-11-29T21:04:37.449Z,131.63
2022-11-29T21:09:41.539Z,132.77
2022-11-29T21:14:44.974Z,121.75
2022-11-29T21:19:48.424Z,122.13
2022-11-29T21:24:59.078Z,123.35
2022-11-29T21:30:05.352Z,121.10
2022-11-29T21:35:08.858Z,110.72
2022-11-29T21:40:14.798Z,119.90
2022-11-29T21:45:17.809Z,112.20
2022-11-29T21:50:20.466Z,109.82
2022-11-29T21:55:31.584Z,108.32
2022-11-29T22:00:37.572Z,100.18
2022-11-29T22:05:40.447Z,96.63
2022-11-29T22:10:44.464Z,102.47
2022-11-29T22:15:47.250Z,99.72
2022-11-29T22:20:49.889Z,93.15
2022-11-29T22:25:53.891Z,95.35
2022-11-29T22:31:02.588Z,90.53
2022-11-29T22:36:06.176Z,85.22
2022-11-29T22:41:11.408Z,85.95
2022-11-29T22:46:16.359Z,81.80
2022-11-29T22:51:23.477Z,80.20
2022-11-29T22:56:29.623Z,82.03
2022-11-29T23:01:35.192Z,73.30
2022-11-29T23:06:39.669Z,77.72
2022-11-29T23:11:44.359Z,74.63
2022-11-29T23:16:47.027Z,73.10
2022-11-29T23:21:51.941Z,68.85
2022-11-29T23:26:55.963Z,73.25
2022-11-29T23:31:58.644Z,65.93
2022-11-29T23:37:01.319Z,62.53
2022-11-29T23:42:05.706Z,62.92
2022-11-29T23:47:08.388Z,65.07
2022-11-29T23:52:11.003Z,59.65
2022-11-29T23:57:14.993Z,58.28
